Fairfax, South Carolina
Current Conditions -  °F | °C
As of 8:35 PM on Tuesday 25 Nov 2014 (Local Time) from KAQX Reporting Station
Haze Haze  
Wind Chill: 57°   Ceiling: 7500
Heat Index: 57°   Visibility: 6mi
Dew Point: 57°   Wind: 0mph
Humidity: 100%   Direction: NA
Pressure: 29.99"   Gusts: NA
Location:  32.96°N, 81.24°W
Report Text: KAQX 260135Z AUTO 00000KT 6SM BR FEW009 SCT013 OVC075 14/14 A2999 RMK AO2
Loading
Personal Weather Stations






























Interactive Weather Map New forecast layout! Learn more

10-Day Weather Forecast

Advertisements
Track Severe Weather on mobile